sensor_id;sensor_type;location;lat;lon;timestamp;pressure;altitude;pressure_sealevel;temperature;humidity
40460;BME280;26164;51.138;16.952;2024-02-21T00:00:03;75584.31;;;-146.39;35.72
40460;BME280;26164;51.138;16.952;2024-02-21T00:02:31;75600.66;;;-146.39;35.23
40460;BME280;26164;51.138;16.952;2024-02-21T00:04:58;75580.25;;;-146.39;35.21
40460;BME280;26164;51.138;16.952;2024-02-21T00:07:25;75492.47;;;-146.39;34.56
40460;BME280;26164;51.138;16.952;2024-02-21T00:09:50;75451.66;;;-146.39;34.25
40460;BME280;26164;51.138;16.952;2024-02-21T00:12:17;75490.44;;;-146.39;34.43
40460;BME280;26164;51.138;16.952;2024-02-21T00:14:42;75429.22;;;-146.39;33.91
40460;BME280;26164;51.138;16.952;2024-02-21T00:17:09;75331.25;;;-146.39;33.31
40460;BME280;26164;51.138;16.952;2024-02-21T00:19:35;75494.50;;;-146.39;34.34
40460;BME280;26164;51.138;16.952;2024-02-21T00:22:04;75547.59;;;-146.39;34.86
40460;BME280;26164;51.138;16.952;2024-02-21T00:24:30;75629.22;;;-146.39;35.75
40460;BME280;26164;51.138;16.952;2024-02-21T00:26:56;75519.00;;;-146.39;34.58
40460;BME280;26164;51.138;16.952;2024-02-21T00:29:49;75531.25;;;-146.39;34.64
40460;BME280;26164;51.138;16.952;2024-02-21T00:32:39;75688.41;;;-146.39;35.98
40460;BME280;26164;51.138;16.952;2024-02-21T00:35:16;75537.38;;;-146.39;35.28
40460;BME280;26164;51.138;16.952;2024-02-21T00:37:49;75576.16;;;-146.39;35.22
40460;BME280;26164;51.138;16.952;2024-02-21T00:40:14;75608.81;;;-146.39;35.66
40460;BME280;26164;51.138;16.952;2024-02-21T00:42:51;75584.31;;;-146.39;35.14
40460;BME280;26164;51.138;16.952;2024-02-21T00:45:20;75525.13;;;-146.39;35.31
40460;BME280;26164;51.138;16.952;2024-02-21T00:47:46;75482.28;;;-146.39;34.44
40460;BME280;26164;51.138;16.952;2024-02-21T00:50:17;75555.75;;;-146.39;35.59
40460;BME280;26164;51.138;16.952;2024-02-21T00:53:01;75561.88;;;-146.39;35.34
40460;BME280;26164;51.138;16.952;2024-02-21T00:55:27;75555.75;;;-146.39;34.96
40460;BME280;26164;51.138;16.952;2024-02-21T00:58:03;75547.59;;;-146.39;35.13
40460;BME280;26164;51.138;16.952;2024-02-21T01:00:29;75486.34;;;-146.39;34.58
40460;BME280;26164;51.138;16.952;2024-02-21T01:02:55;75563.91;;;-146.39;35.10
40460;BME280;26164;51.138;16.952;2024-02-21T01:05:21;75519.00;;;-146.39;34.62
40460;BME280;26164;51.138;16.952;2024-02-21T01:07:49;75478.19;;;-146.39;34.55
40460;BME280;26164;51.138;16.952;2024-02-21T01:10:15;75539.41;;;-146.39;35.12
40460;BME280;26164;51.138;16.952;2024-02-21T01:12:44;75506.75;;;-146.39;35.14
40460;BME280;26164;51.138;16.952;2024-02-21T01:15:11;75547.59;;;-146.39;34.90
40460;BME280;26164;51.138;16.952;2024-02-21T01:17:37;75533.28;;;-146.39;35.33
40460;BME280;26164;51.138;16.952;2024-02-21T01:20:03;75657.78;;;-146.39;36.55
40460;BME280;26164;51.138;16.952;2024-02-21T01:22:31;75572.06;;;-146.39;36.21
40460;BME280;26164;51.138;16.952;2024-02-21T01:25:00;75563.91;;;-146.39;36.36
40460;BME280;26164;51.138;16.952;2024-02-21T01:27:26;75637.38;;;-146.39;37.12
40460;BME280;26164;51.138;16.952;2024-02-21T01:29:54;75576.16;;;-146.39;36.80
40460;BME280;26164;51.138;16.952;2024-02-21T01:32:19;75616.97;;;-146.39;36.83
40460;BME280;26164;51.138;16.952;2024-02-21T01:34:45;75616.97;;;-146.39;37.14
40460;BME280;26164;51.138;16.952;2024-02-21T01:37:11;75645.56;;;-146.39;37.63
40460;BME280;26164;51.138;16.952;2024-02-21T01:39:37;75541.47;;;-146.39;36.79
40460;BME280;26164;51.138;16.952;2024-02-21T01:42:03;75547.59;;;-146.39;36.49
40460;BME280;26164;51.138;16.952;2024-02-21T01:44:29;75559.81;;;-146.39;37.07
40460;BME280;26164;51.138;16.952;2024-02-21T01:46:56;75543.50;;;-146.39;36.68
40460;BME280;26164;51.138;16.952;2024-02-21T01:49:22;75494.50;;;-146.39;36.23
40460;BME280;26164;51.138;16.952;2024-02-21T01:51:48;75537.38;;;-146.39;36.85
40460;BME280;26164;51.138;16.952;2024-02-21T01:54:14;75492.47;;;-146.39;36.83
40460;BME280;26164;51.138;16.952;2024-02-21T01:56:42;75563.91;;;-146.39;37.30
40460;BME280;26164;51.138;16.952;2024-02-21T01:59:09;75437.38;;;-146.39;36.01
40460;BME280;26164;51.138;16.952;2024-02-21T02:01:35;75510.84;;;-146.39;36.74
40460;BME280;26164;51.138;16.952;2024-02-21T02:04:01;75531.25;;;-146.39;36.88
40460;BME280;26164;51.138;16.952;2024-02-21T02:06:28;75416.97;;;-146.39;35.78
40460;BME280;26164;51.138;16.952;2024-02-21T02:08:54;75323.06;;;-146.39;34.99
40460;BME280;26164;51.138;16.952;2024-02-21T02:11:20;75429.22;;;-146.39;35.54
40460;BME280;26164;51.138;16.952;2024-02-21T02:13:46;75449.63;;;-146.39;35.86
40460;BME280;26164;51.138;16.952;2024-02-21T02:16:11;75463.91;;;-146.39;36.12
40460;BME280;26164;51.138;16.952;2024-02-21T02:18:37;75357.78;;;-146.39;35.17
40460;BME280;26164;51.138;16.952;2024-02-21T02:21:05;75351.66;;;-146.39;35.06
40460;BME280;26164;51.138;16.952;2024-02-21T02:23:36;75323.06;;;-146.39;34.57
40460;BME280;26164;51.138;16.952;2024-02-21T02:26:01;75361.84;;;-146.39;34.78
40460;BME280;26164;51.138;16.952;2024-02-21T02:28:27;75353.69;;;-146.39;34.75
40460;BME280;26164;51.138;16.952;2024-02-21T02:30:53;75363.91;;;-146.39;34.96
40460;BME280;26164;51.138;16.952;2024-02-21T02:33:19;75457.78;;;-146.39;35.89
40460;BME280;26164;51.138;16.952;2024-02-21T02:35:45;75367.97;;;-146.39;35.08
40460;BME280;26164;51.138;16.952;2024-02-21T02:38:11;75310.84;;;-146.39;34.40
40460;BME280;26164;51.138;16.952;2024-02-21T02:40:38;75323.06;;;-146.39;34.46
40460;BME280;26164;51.138;16.952;2024-02-21T02:43:06;75333.28;;;-146.39;34.69
40460;BME280;26164;51.138;16.952;2024-02-21T02:45:32;75314.91;;;-146.39;34.47
40460;BME280;26164;51.138;16.952;2024-02-21T02:47:59;75372.06;;;-146.39;34.98
40460;BME280;26164;51.138;16.952;2024-02-21T02:50:26;75282.25;;;-146.39;34.10
40460;BME280;26164;51.138;16.952;2024-02-21T02:52:54;75237.38;;;-146.39;33.88
40460;BME280;26164;51.138;16.952;2024-02-21T02:55:20;75314.91;;;-146.39;34.28
40460;BME280;26164;51.138;16.952;2024-02-21T02:57:46;75486.34;;;-146.39;35.63
40460;BME280;26164;51.138;16.952;2024-02-21T03:00:13;75465.94;;;-146.39;35.96
40460;BME280;26164;51.138;16.952;2024-02-21T03:02:42;75449.63;;;-146.39;35.66
40460;BME280;26164;51.138;16.952;2024-02-21T03:05:18;75453.69;;;-146.39;35.92
40460;BME280;26164;51.138;16.952;2024-02-21T03:07:45;75453.69;;;-146.39;35.66
40460;BME280;26164;51.138;16.952;2024-02-21T03:10:12;75470.03;;;-146.39;35.98
40460;BME280;26164;51.138;16.952;2024-02-21T03:12:38;75453.69;;;-146.39;35.70
40460;BME280;26164;51.138;16.952;2024-02-21T03:15:05;75429.22;;;-146.39;35.63
40460;BME280;26164;51.138;16.952;2024-02-21T03:17:32;75412.88;;;-146.39;35.75
40460;BME280;26164;51.138;16.952;2024-02-21T03:20:01;75396.56;;;-146.39;35.45
40460;BME280;26164;51.138;16.952;2024-02-21T03:22:31;75457.78;;;-146.39;35.79
40460;BME280;26164;51.138;16.952;2024-02-21T03:24:57;75514.94;;;-146.39;36.07
40460;BME280;26164;51.138;16.952;2024-02-21T03:27:23;75482.28;;;-146.39;35.86
40460;BME280;26164;51.138;16.952;2024-02-21T03:29:49;75400.63;;;-146.39;35.38
40460;BME280;26164;51.138;16.952;2024-02-21T03:32:15;75345.53;;;-146.39;34.58
40460;BME280;26164;51.138;16.952;2024-02-21T03:34:40;75459.81;;;-146.39;35.40
40460;BME280;26164;51.138;16.952;2024-02-21T03:37:07;75474.09;;;-146.39;36.04
40460;BME280;26164;51.138;16.952;2024-02-21T03:39:35;75363.91;;;-146.39;34.66
40460;BME280;26164;51.138;16.952;2024-02-21T03:42:02;75408.78;;;-146.39;34.87
40460;BME280;26164;51.138;16.952;2024-02-21T03:44:31;75474.09;;;-146.39;36.00
40460;BME280;26164;51.138;16.952;2024-02-21T03:46:58;75447.56;;;-146.39;35.55
40460;BME280;26164;51.138;16.952;2024-02-21T03:49:24;75478.19;;;-146.39;35.84
40460;BME280;26164;51.138;16.952;2024-02-21T03:51:50;75441.44;;;-146.39;35.57
40460;BME280;26164;51.138;16.952;2024-02-21T03:54:15;75502.69;;;-146.39;35.92
40460;BME280;26164;51.138;16.952;2024-02-21T03:56:41;75490.44;;;-146.39;36.10
40460;BME280;26164;51.138;16.952;2024-02-21T03:59:07;75568.00;;;-146.39;36.67
40460;BME280;26164;51.138;16.952;2024-02-21T04:01:36;75437.38;;;-146.39;35.66
40460;BME280;26164;51.138;16.952;2024-02-21T04:04:02;75527.16;;;-146.39;36.28
40460;BME280;26164;51.138;16.952;2024-02-21T04:06:28;75419.00;;;-146.39;35.45
40460;BME280;26164;51.138;16.952;2024-02-21T04:08:54;75437.38;;;-146.39;35.44
40460;BME280;26164;51.138;16.952;2024-02-21T04:11:20;75506.75;;;-146.39;35.84
40460;BME280;26164;51.138;16.952;2024-02-21T04:13:47;75445.53;;;-146.39;35.19
40460;BME280;26164;51.138;16.952;2024-02-21T04:16:16;75404.72;;;-146.39;35.48
40460;BME280;26164;51.138;16.952;2024-02-21T04:18:42;75367.97;;;-146.39;34.82
40460;BME280;26164;51.138;16.952;2024-02-21T04:21:09;75363.91;;;-146.39;34.65
40460;BME280;26164;51.138;16.952;2024-02-21T04:23:35;75300.63;;;-146.39;33.93
40460;BME280;26164;51.138;16.952;2024-02-21T04:26:00;75323.06;;;-146.39;34.16
40460;BME280;26164;51.138;16.952;2024-02-21T04:28:27;75335.31;;;-146.39;33.86
40460;BME280;26164;51.138;16.952;2024-02-21T04:30:52;75276.13;;;-146.39;33.73
40460;BME280;26164;51.138;16.952;2024-02-21T04:33:19;75308.78;;;-146.39;34.12
40460;BME280;26164;51.138;16.952;2024-02-21T04:35:44;75316.97;;;-146.39;34.04
40460;BME280;26164;51.138;16.952;2024-02-21T04:38:10;75300.63;;;-146.39;33.84
40460;BME280;26164;51.138;16.952;2024-02-21T04:40:36;75325.13;;;-146.39;34.29
40460;BME280;26164;51.138;16.952;2024-02-21T04:43:03;75335.31;;;-146.39;34.01
40460;BME280;26164;51.138;16.952;2024-02-21T04:45:34;75298.59;;;-146.39;33.96
40460;BME280;26164;51.138;16.952;2024-02-21T04:48:05;75316.97;;;-146.39;34.10
40460;BME280;26164;51.138;16.952;2024-02-21T04:50:30;75274.09;;;-146.39;33.88
40460;BME280;26164;51.138;16.952;2024-02-21T04:52:59;75253.69;;;-146.39;33.59
40460;BME280;26164;51.138;16.952;2024-02-21T04:55:26;75274.09;;;-146.39;33.51
40460;BME280;26164;51.138;16.952;2024-02-21T04:57:52;75176.13;;;-146.39;33.03
40460;BME280;26164;51.138;16.952;2024-02-21T05:00:17;75196.53;;;-146.39;33.15
40460;BME280;26164;51.138;16.952;2024-02-21T05:02:46;75123.06;;;-146.39;32.47
40460;BME280;26164;51.138;16.952;2024-02-21T05:05:12;75225.13;;;-146.39;32.89
40460;BME280;26164;51.138;16.952;2024-02-21T05:07:40;75302.66;;;-146.39;33.62
40460;BME280;26164;51.138;16.952;2024-02-21T05:10:07;75372.06;;;-146.39;34.73
40460;BME280;26164;51.138;16.952;2024-02-21T05:12:33;75433.28;;;-146.39;35.06
40460;BME280;26164;51.138;16.952;2024-02-21T05:14:58;75412.88;;;-146.39;34.70
40460;BME280;26164;51.138;16.952;2024-02-21T05:17:24;75284.31;;;-146.39;33.62
40460;BME280;26164;51.138;16.952;2024-02-21T05:19:51;75421.03;;;-146.39;34.72
40460;BME280;26164;51.138;16.952;2024-02-21T05:22:17;75392.47;;;-146.39;34.65
40460;BME280;26164;51.138;16.952;2024-02-21T05:24:43;75433.28;;;-146.39;34.88
40460;BME280;26164;51.138;16.952;2024-02-21T05:27:09;75429.22;;;-146.39;34.71
40460;BME280;26164;51.138;16.952;2024-02-21T05:29:35;75610.84;;;-146.39;36.49
40460;BME280;26164;51.138;16.952;2024-02-21T05:32:01;75478.19;;;-146.39;35.46
40460;BME280;26164;51.138;16.952;2024-02-21T05:34:28;75488.41;;;-146.39;35.57
40460;BME280;26164;51.138;16.952;2024-02-21T05:36:54;75568.00;;;-146.39;35.99
40460;BME280;26164;51.138;16.952;2024-02-21T05:39:20;75527.16;;;-146.39;36.15
40460;BME280;26164;51.138;16.952;2024-02-21T05:41:56;75498.59;;;-146.39;35.74
40460;BME280;26164;51.138;16.952;2024-02-21T05:44:22;75486.34;;;-146.39;35.41
40460;BME280;26164;51.138;16.952;2024-02-21T05:46:56;75396.56;;;-146.39;34.86
40460;BME280;26164;51.138;16.952;2024-02-21T05:49:24;75443.50;;;-146.39;35.26
40460;BME280;26164;51.138;16.952;2024-02-21T05:51:51;75416.97;;;-146.39;34.55
40460;BME280;26164;51.138;16.952;2024-02-21T05:54:17;75451.66;;;-146.39;34.98
40460;BME280;26164;51.138;16.952;2024-02-21T05:56:45;75388.38;;;-146.39;34.60
40460;BME280;26164;51.138;16.952;2024-02-21T05:59:13;75327.16;;;-146.39;34.17
40460;BME280;26164;51.138;16.952;2024-02-21T06:01:41;75323.06;;;-146.39;34.32
40460;BME280;26164;51.138;16.952;2024-02-21T06:04:12;75376.13;;;-146.39;34.58
40460;BME280;26164;51.138;16.952;2024-02-21T06:06:38;75327.16;;;-146.39;34.05
40460;BME280;26164;51.138;16.952;2024-02-21T06:09:04;75353.69;;;-146.39;33.91
40460;BME280;26164;51.138;16.952;2024-02-21T06:11:32;75274.09;;;-146.39;33.37
40460;BME280;26164;51.138;16.952;2024-02-21T06:13:58;75390.44;;;-146.39;34.24
40460;BME280;26164;51.138;16.952;2024-02-21T06:16:51;75290.44;;;-146.39;33.58
40460;BME280;26164;51.138;16.952;2024-02-21T06:19:18;75447.56;;;-146.39;34.64
40460;BME280;26164;51.138;16.952;2024-02-21T06:22:25;75441.44;;;-146.39;34.71
40460;BME280;26164;51.138;16.952;2024-02-21T06:54:44;75523.09;;;-146.39;35.63
40460;BME280;26164;51.138;16.952;2024-02-21T06:57:26;75429.22;;;-146.39;34.81
40460;BME280;26164;51.138;16.952;2024-02-21T06:59:53;75384.31;;;-146.39;34.82
40460;BME280;26164;51.138;16.952;2024-02-21T07:02:24;75484.31;;;-146.39;35.29
40460;BME280;26164;51.138;16.952;2024-02-21T07:05:10;75359.81;;;-146.39;34.63
40460;BME280;26164;51.138;16.952;2024-02-21T07:13:04;75296.53;;;-146.39;34.49
40460;BME280;26164;51.138;16.952;2024-02-21T07:19:52;75282.25;;;-146.39;34.02
40460;BME280;26164;51.138;16.952;2024-02-21T07:22:25;75286.34;;;-146.39;34.38
40460;BME280;26164;51.138;16.952;2024-02-21T07:24:59;75357.78;;;-146.39;35.05
40460;BME280;26164;51.138;16.952;2024-02-21T07:27:25;75302.66;;;-146.39;34.39
40460;BME280;26164;51.138;16.952;2024-02-21T07:30:19;75347.56;;;-146.39;35.10
40460;BME280;26164;51.138;16.952;2024-02-21T07:32:45;75265.94;;;-146.39;34.54
40460;BME280;26164;51.138;16.952;2024-02-21T07:35:22;75241.44;;;-146.39;34.03
40460;BME280;26164;51.138;16.952;2024-02-21T07:37:48;75282.25;;;-146.39;34.67
40460;BME280;26164;51.138;16.952;2024-02-21T07:40:16;75216.97;;;-146.39;34.15
40460;BME280;26164;51.138;16.952;2024-02-21T07:42:43;75184.31;;;-146.39;34.27
40460;BME280;26164;51.138;16.952;2024-02-21T07:45:10;75229.19;;;-146.39;34.17
40460;BME280;26164;51.138;16.952;2024-02-21T07:47:51;75253.69;;;-146.39;34.65
40460;BME280;26164;51.138;16.952;2024-02-21T07:50:23;75302.66;;;-146.39;34.67
40460;BME280;26164;51.138;16.952;2024-02-21T07:52:49;75135.31;;;-146.39;33.77
40460;BME280;26164;51.138;16.952;2024-02-21T07:55:27;75112.88;;;-146.39;33.54
40460;BME280;26164;51.138;16.952;2024-02-21T07:57:58;75233.28;;;-146.39;34.67
40460;BME280;26164;51.138;16.952;2024-02-21T08:00:24;75270.03;;;-146.39;34.61
40460;BME280;26164;51.138;16.952;2024-02-21T08:02:50;75241.44;;;-146.39;34.32
40460;BME280;26164;51.138;16.952;2024-02-21T08:05:16;75219.00;;;-146.39;34.29
40460;BME280;26164;51.138;16.952;2024-02-21T08:07:42;75147.56;;;-146.39;33.85
40460;BME280;26164;51.138;16.952;2024-02-21T08:10:08;75137.38;;;-146.39;33.57
40460;BME280;26164;51.138;16.952;2024-02-21T08:12:34;75286.34;;;-146.39;34.95
40460;BME280;26164;51.138;16.952;2024-02-21T08:15:01;75323.06;;;-146.39;35.32
40460;BME280;26164;51.138;16.952;2024-02-21T08:17:29;75302.66;;;-146.39;35.02
40460;BME280;26164;51.138;16.952;2024-02-21T08:19:55;75176.13;;;-146.39;33.98
40460;BME280;26164;51.138;16.952;2024-02-21T08:22:21;75208.78;;;-146.39;34.34
40460;BME280;26164;51.138;16.952;2024-02-21T08:24:48;75141.44;;;-146.39;34.00
40460;BME280;26164;51.138;16.952;2024-02-21T08:27:13;75237.38;;;-146.39;34.52
40460;BME280;26164;51.138;16.952;2024-02-21T08:29:42;75257.78;;;-146.39;34.75
40460;BME280;26164;51.138;16.952;2024-02-21T08:32:09;75312.88;;;-146.39;35.02
40460;BME280;26164;51.138;16.952;2024-02-21T08:34:37;75372.06;;;-146.39;35.76
40460;BME280;26164;51.138;16.952;2024-02-21T08:37:03;75376.13;;;-146.39;35.92
40460;BME280;26164;51.138;16.952;2024-02-21T08:39:29;75343.50;;;-146.39;35.66
40460;BME280;26164;51.138;16.952;2024-02-21T08:41:56;75300.63;;;-146.39;35.35
40460;BME280;26164;51.138;16.952;2024-02-21T08:44:27;75282.25;;;-146.39;35.17
40460;BME280;26164;51.138;16.952;2024-02-21T08:46:59;75257.78;;;-146.39;35.14
40460;BME280;26164;51.138;16.952;2024-02-21T08:49:25;75421.03;;;-146.39;36.30
40460;BME280;26164;51.138;16.952;2024-02-21T08:51:55;75282.25;;;-146.39;35.37
40460;BME280;26164;51.138;16.952;2024-02-21T08:54:21;75359.81;;;-146.39;35.81
40460;BME280;26164;51.138;16.952;2024-02-21T08:56:46;75327.16;;;-146.39;35.78
40460;BME280;26164;51.138;16.952;2024-02-21T08:59:12;75300.63;;;-146.39;35.83
40460;BME280;26164;51.138;16.952;2024-02-21T09:01:39;75176.13;;;-146.39;34.93
40460;BME280;26164;51.138;16.952;2024-02-21T09:04:09;75180.22;;;-146.39;34.51
40460;BME280;26164;51.138;16.952;2024-02-21T09:06:35;75102.66;;;-146.39;33.93
40460;BME280;26164;51.138;16.952;2024-02-21T09:09:17;75176.13;;;-146.39;34.18
40460;BME280;26164;51.138;16.952;2024-02-21T09:11:43;75035.31;;;-146.39;33.29
40460;BME280;26164;51.138;16.952;2024-02-21T09:14:10;75194.50;;;-146.39;34.38
40460;BME280;26164;51.138;16.952;2024-02-21T09:16:36;75233.28;;;-146.39;35.04
40460;BME280;26164;51.138;16.952;2024-02-21T09:19:04;75180.22;;;-146.39;34.55
40460;BME280;26164;51.138;16.952;2024-02-21T09:21:29;75216.97;;;-146.39;34.63
40460;BME280;26164;51.138;16.952;2024-02-21T09:24:05;75090.44;;;-146.39;33.80
40460;BME280;26164;51.138;16.952;2024-02-21T09:26:32;75221.03;;;-146.39;34.95
40460;BME280;26164;51.138;16.952;2024-02-21T09:29:01;75257.78;;;-146.39;35.21
40460;BME280;26164;51.138;16.952;2024-02-21T09:31:28;75131.25;;;-146.39;34.28
40460;BME280;26164;51.138;16.952;2024-02-21T09:33:54;75061.84;;;-146.39;33.67
40460;BME280;26164;51.138;16.952;2024-02-21T09:36:22;75065.94;;;-146.39;33.79
40460;BME280;26164;51.138;16.952;2024-02-21T09:38:49;75059.81;;;-146.39;33.78
40460;BME280;26164;51.138;16.952;2024-02-21T09:41:16;74996.56;;;-146.39;33.24
40460;BME280;26164;51.138;16.952;2024-02-21T09:43:45;74947.56;;;-146.39;32.85
40460;BME280;26164;51.138;16.952;2024-02-21T09:46:24;74902.69;;;-146.39;32.39
40460;BME280;26164;51.138;16.952;2024-02-21T09:49:18;75057.78;;;-146.39;33.77
40460;BME280;26164;51.138;16.952;2024-02-21T09:52:10;74976.16;;;-146.39;33.06
40460;BME280;26164;51.138;16.952;2024-02-21T09:54:40;74976.16;;;-146.39;33.07
40460;BME280;26164;51.138;16.952;2024-02-21T09:57:27;75029.22;;;-146.39;33.12
40460;BME280;26164;51.138;16.952;2024-02-21T09:59:56;75063.91;;;-146.39;33.53
40460;BME280;26164;51.138;16.952;2024-02-21T10:02:22;75188.38;;;-146.39;34.73
40460;BME280;26164;51.138;16.952;2024-02-21T10:05:06;75053.69;;;-146.39;33.91
40460;BME280;26164;51.138;16.952;2024-02-21T10:07:59;75041.44;;;-146.39;33.68
40460;BME280;26164;51.138;16.952;2024-02-21T10:10:53;75092.47;;;-146.39;33.88
40460;BME280;26164;51.138;16.952;2024-02-21T10:13:29;75180.22;;;-146.39;34.67
40460;BME280;26164;51.138;16.952;2024-02-21T10:16:06;75143.50;;;-146.39;34.63
40460;BME280;26164;51.138;16.952;2024-02-21T10:18:36;75208.78;;;-146.39;34.56
40460;BME280;26164;51.138;16.952;2024-02-21T10:21:05;75119.00;;;-146.39;34.33
40460;BME280;26164;51.138;16.952;2024-02-21T10:23:47;75078.19;;;-146.39;33.99
40460;BME280;26164;51.138;16.952;2024-02-21T10:26:16;75094.50;;;-146.39;34.11
40460;BME280;26164;51.138;16.952;2024-02-21T10:28:49;75016.97;;;-146.39;33.53
40460;BME280;26164;51.138;16.952;2024-02-21T10:31:28;74947.56;;;-146.39;33.16
40460;BME280;26164;51.138;16.952;2024-02-21T10:33:58;75061.84;;;-146.39;33.80
40460;BME280;26164;51.138;16.952;2024-02-21T10:36:30;74972.06;;;-146.39;33.17
40460;BME280;26164;51.138;16.952;2024-02-21T10:39:12;75053.69;;;-146.39;34.01
40460;BME280;26164;51.138;16.952;2024-02-21T10:41:56;74816.97;;;-146.39;32.26
40460;BME280;26164;51.138;16.952;2024-02-21T10:45:00;74963.91;;;-146.39;33.21
40460;BME280;26164;51.138;16.952;2024-02-21T10:47:36;74961.88;;;-146.39;33.10
40460;BME280;26164;51.138;16.952;2024-02-21T10:50:13;74882.28;;;-146.39;32.79
40460;BME280;26164;51.138;16.952;2024-02-21T10:53:10;74761.88;;;-146.39;32.06
40460;BME280;26164;51.138;16.952;2024-02-21T10:56:05;74788.41;;;-146.39;32.02
40460;BME280;26164;51.138;16.952;2024-02-21T10:58:33;74955.75;;;-146.39;33.10
40460;BME280;26164;51.138;16.952;2024-02-21T11:00:59;75029.22;;;-146.39;33.82
40460;BME280;26164;51.138;16.952;2024-02-21T11:03:25;74886.34;;;-146.39;32.64
40460;BME280;26164;51.138;16.952;2024-02-21T11:05:52;75045.53;;;-146.39;33.88
40460;BME280;26164;51.138;16.952;2024-02-21T11:08:19;74955.75;;;-146.39;33.26
40460;BME280;26164;51.138;16.952;2024-02-21T11:10:46;74974.09;;;-146.39;33.16
40460;BME280;26164;51.138;16.952;2024-02-21T11:13:11;74963.91;;;-146.39;33.12
40460;BME280;26164;51.138;16.952;2024-02-21T11:15:45;74861.88;;;-146.39;32.28
40460;BME280;26164;51.138;16.952;2024-02-21T11:18:23;74861.88;;;-146.39;32.49
40460;BME280;26164;51.138;16.952;2024-02-21T11:20:50;74800.66;;;-146.39;32.23
40460;BME280;26164;51.138;16.952;2024-02-21T11:23:25;74763.91;;;-146.39;31.96
40460;BME280;26164;51.138;16.952;2024-02-21T11:25:51;74870.03;;;-146.39;32.57
40460;BME280;26164;51.138;16.952;2024-02-21T11:28:28;74637.41;;;-146.39;31.24
40460;BME280;26164;51.138;16.952;2024-02-21T11:31:10;74539.47;;;-146.39;30.46
40460;BME280;26164;51.138;16.952;2024-02-21T11:33:41;74576.19;;;-146.39;30.91
40460;BME280;26164;51.138;16.952;2024-02-21T11:36:34;74643.53;;;-146.39;30.89
40460;BME280;26164;51.138;16.952;2024-02-21T11:39:29;74535.38;;;-146.39;30.19
40460;BME280;26164;51.138;16.952;2024-02-21T11:42:04;74698.63;;;-146.39;31.48
40460;BME280;26164;51.138;16.952;2024-02-21T11:44:57;74753.72;;;-146.39;31.60
40460;BME280;26164;51.138;16.952;2024-02-21T11:47:35;74778.19;;;-146.39;31.89
40460;BME280;26164;51.138;16.952;2024-02-21T11:50:11;74641.50;;;-146.39;30.79
40460;BME280;26164;51.138;16.952;2024-02-21T11:53:03;74723.09;;;-146.39;31.56
40460;BME280;26164;51.138;16.952;2024-02-21T11:56:14;74910.84;;;-146.39;32.87
40460;BME280;26164;51.138;16.952;2024-02-21T11:58:42;74955.75;;;-146.39;33.00
40460;BME280;26164;51.138;16.952;2024-02-21T12:01:11;74861.88;;;-146.39;32.59
40460;BME280;26164;51.138;16.952;2024-02-21T12:03:39;74910.84;;;-146.39;32.86
40460;BME280;26164;51.138;16.952;2024-02-21T12:06:07;74963.91;;;-146.39;33.12
40460;BME280;26164;51.138;16.952;2024-02-21T12:08:43;74747.59;;;-146.39;31.68
40460;BME280;26164;51.138;16.952;2024-02-21T12:11:22;74576.19;;;-146.39;30.71
40460;BME280;26164;51.138;16.952;2024-02-21T12:14:02;74604.75;;;-146.39;30.91
40460;BME280;26164;51.138;16.952;2024-02-21T12:16:32;74702.69;;;-146.39;31.56
40460;BME280;26164;51.138;16.952;2024-02-21T12:18:59;74847.59;;;-146.39;32.15
40460;BME280;26164;51.138;16.952;2024-02-21T12:21:30;74935.34;;;-146.39;32.68
40460;BME280;26164;51.138;16.952;2024-02-21T12:24:24;74882.28;;;-146.39;32.53
40460;BME280;26164;51.138;16.952;2024-02-21T12:29:56;74910.84;;;-146.39;32.38
40460;BME280;26164;51.138;16.952;2024-02-21T12:32:23;74768.00;;;-146.39;31.77
40460;BME280;26164;51.138;16.952;2024-02-21T12:34:50;74816.97;;;-146.39;31.89
40460;BME280;26164;51.138;16.952;2024-02-21T12:37:19;74755.75;;;-146.39;31.14
40460;BME280;26164;51.138;16.952;2024-02-21T12:39:50;74723.09;;;-146.39;31.16
40460;BME280;26164;51.138;16.952;2024-02-21T12:42:17;74682.28;;;-146.39;30.97
40460;BME280;26164;51.138;16.952;2024-02-21T12:44:47;74678.22;;;-146.39;31.17
40460;BME280;26164;51.138;16.952;2024-02-21T12:47:13;74874.13;;;-146.39;32.01
40460;BME280;26164;51.138;16.952;2024-02-21T12:49:39;74890.44;;;-146.39;32.50
40460;BME280;26164;51.138;16.952;2024-02-21T12:52:07;74912.88;;;-146.39;32.59
40460;BME280;26164;51.138;16.952;2024-02-21T12:54:38;75004.72;;;-146.39;33.32
40460;BME280;26164;51.138;16.952;2024-02-21T12:57:08;74935.34;;;-146.39;33.20
40460;BME280;26164;51.138;16.952;2024-02-21T12:59:41;75021.03;;;-146.39;33.59
40460;BME280;26164;51.138;16.952;2024-02-21T13:02:16;74914.94;;;-146.39;32.80
40460;BME280;26164;51.138;16.952;2024-02-21T13:07:46;74876.16;;;-146.39;32.71
40460;BME280;26164;51.138;16.952;2024-02-21T13:10:14;74931.25;;;-146.39;32.89
40460;BME280;26164;51.138;16.952;2024-02-21T13:12:43;74825.13;;;-146.39;32.19
40460;BME280;26164;51.138;16.952;2024-02-21T13:15:38;74898.59;;;-146.39;32.91
40460;BME280;26164;51.138;16.952;2024-02-21T13:18:27;74976.16;;;-146.39;33.17
40460;BME280;26164;51.138;16.952;2024-02-21T13:21:37;74927.16;;;-146.39;33.15
40460;BME280;26164;51.138;16.952;2024-02-21T13:24:09;74904.72;;;-146.39;33.00
40460;BME280;26164;51.138;16.952;2024-02-21T13:27:17;74900.63;;;-146.39;33.17
40460;BME280;26164;51.138;16.952;2024-02-21T13:30:25;74919.00;;;-146.39;33.03
40460;BME280;26164;51.138;16.952;2024-02-21T13:32:51;74949.63;;;-146.39;33.30